Terminal Aerodrome Forecast
Issued by NWS Pocatello, ID

Home | Current Version | Previous Version | Text Only | Print | Product List | Glossary On
Versions: 1 2 3 4 5 6 7 8 9 10 11 12
000
FTUS45 KPIH 051123
TAFBYI
TAF
KBYI 051123Z 0512/0612 22006KT P6SM SCT070 BKN100
     FM052000 27016G26KT P6SM SCT070 SCT110
     FM060300 25014KT P6SM SCT120=

USA.gov is the U.S. government's official web portal to all federal, state and local government web resources and services.